Time;durP1;ratioP1;P1;durP2;ratioP2;P2;SDS_P1;SDS_P2;PMS_P1;PMS_P2;Temp;Humidity;BMP_temperature;BMP_pressure;BME280_temperature;BME280_humidity;BME280_pressure;Samples;Min_cycle;Max_cycle;Signal;HPM_P1;HPM_P2
2023/04/12 00:02:36;;;;;;;11.27;1.90;;;;;;;;;;5022913;28;20046;-79
2023/04/12 00:05:08;;;;;;;8.55;2.22;;;;;;;;;;5026533;28;20062;-79
2023/04/12 00:07:39;;;;;;;7.45;1.95;;;;;;;;;;5036515;28;20046;-79
2023/04/12 00:10:09;;;;;;;6.40;1.77;;;;;;;;;;5034175;28;20098;-78
2023/04/12 00:12:45;;;;;;;6.38;1.50;;;;;;;;;;5013494;28;20084;-79
2023/04/12 00:15:13;;;;;;;8.07;1.70;;;;;;;;;;5010438;28;20128;-80
2023/04/12 00:17:41;;;;;;;5.78;1.50;;;;;;;;;;5020687;28;20062;-79
2023/04/12 00:20:12;;;;;;;8.55;1.33;;;;;;;;;;5016506;28;20137;-79
2023/04/12 00:22:42;;;;;;;6.70;1.40;;;;;;;;;;5020175;28;20828;-79
2023/04/12 00:25:14;;;;;;;6.68;2.03;;;;;;;;;;5034759;28;20245;-79
2023/04/12 00:27:50;;;;;;;6.28;1.60;;;;;;;;;;5010451;28;20117;-79
2023/04/12 00:30:19;;;;;;;6.63;1.25;;;;;;;;;;5018130;28;20062;-80
2023/04/12 00:32:48;;;;;;;4.13;1.20;;;;;;;;;;5017995;28;20063;-80
2023/04/12 00:35:18;;;;;;;5.47;1.50;;;;;;;;;;5015251;28;20058;-79
2023/04/12 00:38:09;;;;;;;4.97;1.15;;;;;;;;;;5021884;28;20054;-78
2023/04/12 00:40:42;;;;;;;6.70;1.30;;;;;;;;;;5020133;28;20144;-77
2023/04/12 00:43:22;;;;;;;6.20;1.40;;;;;;;;;;5020213;28;20428;-80
2023/04/12 00:45:50;;;;;;;6.10;1.10;;;;;;;;;;5031476;28;20053;-79
2023/04/12 00:48:42;;;;;;;6.30;1.20;;;;;;;;;;5031430;28;20846;-79
2023/04/12 00:51:21;;;;;;;4.68;1.20;;;;;;;;;;5021493;28;20537;-79
2023/04/12 00:53:52;;;;;;;7.32;1.58;;;;;;;;;;5030885;28;20054;-78
2023/04/12 00:56:28;;;;;;;5.07;1.40;;;;;;;;;;5013269;28;20051;-79
2023/04/12 00:59:08;;;;;;;5.60;1.15;;;;;;;;;;5014017;28;20046;-79
2023/04/12 01:02:05;;;;;;;6.72;1.52;;;;;;;;;;5014585;28;21012;-78
2023/04/12 01:04:38;;;;;;;5.32;1.92;;;;;;;;;;5031561;28;20062;-78
2023/04/12 01:07:36;;;;;;;7.97;2.00;;;;;;;;;;5034301;28;20046;-79
2023/04/12 01:10:29;;;;;;;8.48;2.13;;;;;;;;;;5030072;28;20882;-78
2023/04/12 01:13:14;;;;;;;7.32;1.73;;;;;;;;;;5025015;28;20054;-79
2023/04/12 01:15:58;;;;;;;5.70;1.50;;;;;;;;;;5017022;28;20219;-78
2023/04/12 01:18:39;;;;;;;;;;;;;;;;;;5016608;28;20807;-78
2023/04/12 01:21:17;;;;;;;5.15;1.50;;;;;;;;;;5033405;28;44281;-78
2023/04/12 01:24:07;;;;;;;8.65;1.88;;;;;;;;;;5031328;28;20982;-78
2023/04/12 01:26:46;;;;;;;7.90;1.70;;;;;;;;;;5015861;28;20172;-79
2023/04/12 01:29:19;;;;;;;;;;;;;;;;;;5028934;28;20062;-78
2023/04/12 01:32:01;;;;;;;7.32;1.58;;;;;;;;;;5016951;28;45775;-78
2023/04/12 01:34:34;;;;;;;6.20;1.35;;;;;;;;;;5020798;28;20575;-78
2023/04/12 01:37:18;;;;;;;7.85;1.98;;;;;;;;;;5035391;28;20061;-78
2023/04/12 01:40:00;;;;;;;5.50;1.45;;;;;;;;;;5026700;28;20133;-78
2023/04/12 01:42:32;;;;;;;5.72;1.35;;;;;;;;;;5015891;28;20441;-78
2023/04/12 01:45:12;;;;;;;7.20;1.40;;;;;;;;;;5020590;28;20081;-78
2023/04/12 01:47:48;;;;;;;5.47;1.70;;;;;;;;;;5028049;28;20055;-78
2023/04/12 01:50:17;;;;;;;8.10;1.67;;;;;;;;;;5015271;28;20101;-78
2023/04/12 01:52:55;;;;;;;6.38;1.48;;;;;;;;;;5019278;28;20054;-78
2023/04/12 01:55:34;;;;;;;4.57;1.50;;;;;;;;;;5015166;28;20698;-79
2023/04/12 01:58:05;;;;;;;7.28;1.60;;;;;;;;;;5015727;28;20117;-79
2023/04/12 02:00:35;;;;;;;6.82;1.65;;;;;;;;;;5022563;28;20790;-78
2023/04/12 02:03:12;;;;;;;8.02;1.70;;;;;;;;;;5033961;28;20046;-78
2023/04/12 02:05:45;;;;;;;;;;;;;;;;;;5025394;28;20089;-79
2023/04/12 02:08:46;;;;;;;7.43;1.45;;;;;;;;;;5026611;28;49391;-79
2023/04/12 02:11:24;;;;;;;6.68;1.70;;;;;;;;;;5022797;28;20050;-78
2023/04/12 02:14:09;;;;;;;7.05;1.60;;;;;;;;;;5015568;28;20081;-78
2023/04/12 02:16:43;;;;;;;6.80;1.70;;;;;;;;;;5015023;28;20054;-78
2023/04/12 02:19:21;;;;;;;10.38;1.90;;;;;;;;;;5017587;28;20106;-79
2023/04/12 02:21:53;;;;;;;8.05;1.70;;;;;;;;;;5023878;28;20144;-78
2023/04/12 02:24:33;;;;;;;7.35;1.80;;;;;;;;;;5034389;28;20050;-79
2023/04/12 02:27:16;;;;;;;;;;;;;;;;;;;;;
2023/04/12 02:30:05;;;;;;;10.23;1.83;;;;;;;;;;5014930;28;20059;-79
2023/04/12 02:32:50;;;;;;;6.03;2.03;;;;;;;;;;5015908;28;20068;-78
2023/04/12 02:35:31;;;;;;;5.82;1.45;;;;;;;;;;5015365;28;20880;-78
2023/04/12 02:38:10;;;;;;;7.65;1.60;;;;;;;;;;5024304;28;20081;-78
2023/04/12 02:40:45;;;;;;;8.63;1.92;;;;;;;;;;5025881;28;20058;-78
2023/04/12 02:43:16;;;;;;;4.63;1.48;;;;;;;;;;5038961;28;20057;-78
2023/04/12 02:46:00;;;;;;;5.00;1.67;;;;;;;;;;5040117;28;20050;-79
2023/04/12 02:48:33;;;;;;;6.72;1.60;;;;;;;;;;5040847;28;20130;-79
2023/04/12 02:51:08;;;;;;;8.60;1.73;;;;;;;;;;5039531;28;20050;-77
2023/04/12 02:53:50;;;;;;;8.98;1.63;;;;;;;;;;5013977;28;20114;-78
2023/04/12 02:56:36;;;;;;;6.07;1.50;;;;;;;;;;5030886;28;20061;-78
2023/04/12 02:59:16;;;;;;;6.50;1.77;;;;;;;;;;5041364;28;20046;-78
2023/04/12 03:01:56;;;;;;;7.53;1.80;;;;;;;;;;5039423;28;20046;-78
2023/04/12 03:04:46;;;;;;;5.22;1.63;;;;;;;;;;5029008;28;20129;-78
2023/04/12 03:07:25;;;;;;;5.85;1.60;;;;;;;;;;5025386;28;20058;-78
2023/04/12 03:10:05;;;;;;;10.63;2.15;;;;;;;;;;5027183;28;20102;-78
2023/04/12 03:12:36;;;;;;;7.20;1.48;;;;;;;;;;5033414;28;20087;-79
2023/04/12 03:15:12;;;;;;;5.35;1.73;;;;;;;;;;5034008;28;20061;-78
2023/04/12 03:17:56;;;;;;;4.85;1.55;;;;;;;;;;5023662;28;20057;-78
2023/04/12 03:20:40;;;;;;;6.47;1.80;;;;;;;;;;5038673;28;20140;-78
2023/04/12 03:26:19;;;;;;;6.78;1.63;;;;;;;;;;5038108;28;20060;-79
2023/04/12 03:28:59;;;;;;;4.90;1.60;;;;;;;;;;5019260;28;20061;-79
2023/04/12 03:31:35;;;;;;;3.85;1.35;;;;;;;;;;5037019;28;20097;-79
2023/04/12 03:34:08;;;;;;;5.70;1.52;;;;;;;;;;5034845;28;20074;-79
2023/04/12 03:36:41;;;;;;;5.55;1.45;;;;;;;;;;5024162;28;20058;-79
2023/04/12 03:39:13;;;;;;;5.78;1.48;;;;;;;;;;5020848;28;20062;-79
2023/04/12 03:41:46;;;;;;;4.90;1.75;;;;;;;;;;5018590;28;20043;-78
2023/04/12 03:44:27;;;;;;;5.25;1.60;;;;;;;;;;5028266;28;20057;-78
2023/04/12 03:47:02;;;;;;;7.80;1.80;;;;;;;;;;5027522;28;20078;-78
2023/04/12 03:49:32;;;;;;;5.15;1.50;;;;;;;;;;5019794;28;20072;-79
2023/04/12 03:52:01;;;;;;;6.40;1.60;;;;;;;;;;5020780;28;20058;-78
2023/04/12 03:54:40;;;;;;;6.15;1.80;;;;;;;;;;5022046;28;20167;-78
2023/04/12 03:57:11;;;;;;;5.45;1.38;;;;;;;;;;5037479;28;20058;-78
2023/04/12 03:59:52;;;;;;;7.63;1.60;;;;;;;;;;5024252;28;20054;-79
2023/04/12 04:02:32;;;;;;;6.97;2.35;;;;;;;;;;5031548;28;20061;-79
2023/04/12 04:05:08;;;;;;;7.88;1.83;;;;;;;;;;5030352;28;20037;-79
2023/04/12 04:07:43;;;;;;;4.78;1.52;;;;;;;;;;5017811;28;20632;-79
2023/04/12 04:10:44;;;;;;;;;;;;;;;;;;;;;
2023/04/12 04:13:26;;;;;;;6.63;1.90;;;;;;;;;;5020167;28;20047;-80
2023/04/12 04:16:03;;;;;;;8.20;1.73;;;;;;;;;;5023404;28;20190;-79
2023/04/12 04:18:40;;;;;;;6.47;1.90;;;;;;;;;;5020450;28;20053;-80
2023/04/12 04:21:21;;;;;;;6.43;1.75;;;;;;;;;;5037578;28;20488;-80
2023/04/12 04:23:57;;;;;;;9.32;1.80;;;;;;;;;;5035180;28;20042;-79
2023/04/12 04:26:38;;;;;;;5.75;1.63;;;;;;;;;;5023624;28;20081;-79
2023/04/12 04:29:11;;;;;;;6.13;1.80;;;;;;;;;;5037579;28;20050;-79
2023/04/12 04:31:52;;;;;;;4.97;2.00;;;;;;;;;;5036747;28;20136;-80
2023/04/12 04:34:28;;;;;;;5.15;1.90;;;;;;;;;;5038110;28;20061;-80
2023/04/12 04:37:09;;;;;;;8.93;1.90;;;;;;;;;;5037843;28;20057;-79
2023/04/12 04:39:46;;;;;;;7.13;2.08;;;;;;;;;;5029347;28;20119;-80
2023/04/12 04:42:28;;;;;;;8.38;1.85;;;;;;;;;;5038408;28;20132;-79
2023/04/12 04:45:25;;;;;;;9.00;1.90;;;;;;;;;;5028529;28;20061;-80
2023/04/12 04:47:57;;;;;;;6.70;1.77;;;;;;;;;;5034900;28;20054;-80
2023/04/12 04:50:30;;;;;;;5.60;1.80;;;;;;;;;;5036778;28;20076;-79
2023/04/12 04:53:00;;;;;;;6.78;1.98;;;;;;;;;;5035586;28;20182;-80
2023/04/12 04:55:33;;;;;;;7.03;2.10;;;;;;;;;;5024471;28;20064;-80
2023/04/12 04:58:12;;;;;;;6.85;2.15;;;;;;;;;;5020134;28;20109;-79
2023/04/12 05:00:43;;;;;;;5.93;2.35;;;;;;;;;;5032345;28;20089;-80
2023/04/12 05:03:13;;;;;;;5.88;1.98;;;;;;;;;;5031220;28;20064;-80
2023/04/12 05:05:43;;;;;;;7.05;1.95;;;;;;;;;;5036256;28;20105;-80
2023/04/12 05:08:14;;;;;;;7.97;2.38;;;;;;;;;;5036776;28;21437;-81
2023/04/12 05:11:06;;;;;;;;;;;;;;;;;;;;;
2023/04/12 05:13:37;;;;;;;7.18;2.88;;;;;;;;;;5015506;28;20101;-80
2023/04/12 05:16:07;;;;;;;7.22;2.35;;;;;;;;;;5013868;28;20086;-79
2023/04/12 05:18:45;;;;;;;4.93;2.08;;;;;;;;;;5021951;28;20046;-79
2023/04/12 05:21:13;;;;;;;6.32;2.22;;;;;;;;;;5035413;28;20072;-80
2023/04/12 05:23:42;;;;;;;5.07;1.95;;;;;;;;;;5034799;28;20050;-79
2023/04/12 05:26:13;;;;;;;6.10;2.22;;;;;;;;;;5012181;28;20058;-79
2023/04/12 05:28:40;;;;;;;5.53;2.30;;;;;;;;;;5018851;28;20056;-80
2023/04/12 05:31:10;;;;;;;6.47;2.58;;;;;;;;;;5013588;28;20061;-80
2023/04/12 05:33:49;;;;;;;8.40;2.45;;;;;;;;;;5025808;28;20058;-79
2023/04/12 05:36:27;;;;;;;5.43;2.20;;;;;;;;;;5034830;28;20098;-81
2023/04/12 05:39:00;;;;;;;5.35;2.30;;;;;;;;;;5032034;28;20050;-78
2023/04/12 05:41:30;;;;;;;6.82;2.42;;;;;;;;;;5016993;28;20062;-78
2023/04/12 05:43:57;;;;;;;6.68;2.90;;;;;;;;;;5012736;28;20038;-78
2023/04/12 05:46:28;;;;;;;8.43;2.53;;;;;;;;;;5029708;28;20061;-80
2023/04/12 05:49:12;;;;;;;5.93;2.30;;;;;;;;;;5033993;28;20095;-79
2023/04/12 05:51:46;;;;;;;6.22;2.78;;;;;;;;;;5015201;28;20061;-78
2023/04/12 05:54:20;;;;;;;10.07;4.85;;;;;;;;;;5020945;28;20057;-79
2023/04/12 05:56:56;;;;;;;9.35;4.00;;;;;;;;;;5014936;28;20068;-78
2023/04/12 05:59:27;;;;;;;6.80;2.40;;;;;;;;;;5031886;28;20054;-78
2023/04/12 06:01:59;;;;;;;5.63;2.58;;;;;;;;;;5022792;28;20058;-78
2023/04/12 06:04:32;;;;;;;5.68;2.60;;;;;;;;;;5026155;28;20072;-79
2023/04/12 06:07:18;;;;;;;8.13;3.25;;;;;;;;;;5032652;28;20065;-78
2023/04/12 06:09:51;;;;;;;12.23;4.93;;;;;;;;;;5018658;28;20062;-79
2023/04/12 06:12:33;;;;;;;3.85;1.75;;;;;;;;;;5015466;28;20066;-79
2023/04/12 06:15:09;;;;;;;4.03;1.73;;;;;;;;;;5026231;28;20057;-78
2023/04/12 06:17:54;;;;;;;4.50;1.90;;;;;;;;;;5026864;28;20144;-79
2023/04/12 06:20:29;;;;;;;4.88;2.10;;;;;;;;;;5020349;28;20051;-79
2023/04/12 06:23:05;;;;;;;5.93;2.45;;;;;;;;;;5021240;28;20108;-78
2023/04/12 06:25:33;;;;;;;5.63;2.40;;;;;;;;;;5025461;28;20061;-79
2023/04/12 06:28:04;;;;;;;4.75;2.30;;;;;;;;;;5030833;28;20066;-79
2023/04/12 06:30:43;;;;;;;11.38;2.40;;;;;;;;;;5021617;28;20038;-80
2023/04/12 06:33:21;;;;;;;6.60;2.38;;;;;;;;;;5028758;28;20587;-79
2023/04/12 06:35:56;;;;;;;4.90;2.30;;;;;;;;;;5026250;28;20185;-78
2023/04/12 06:38:24;;;;;;;6.88;2.47;;;;;;;;;;5000300;28;20046;-81
2023/04/12 06:40:56;;;;;;;6.07;2.15;;;;;;;;;;5026120;28;20058;-79
2023/04/12 06:43:30;;;;;;;7.90;2.78;;;;;;;;;;5031127;28;20050;-78
2023/04/12 06:46:09;;;;;;;5.55;2.55;;;;;;;;;;5018228;28;20189;-79
2023/04/12 06:48:44;;;;;;;6.25;1.98;;;;;;;;;;5020810;28;20050;-79
2023/04/12 06:51:18;;;;;;;7.63;2.22;;;;;;;;;;5019656;28;20042;-81
2023/04/12 06:53:51;;;;;;;7.68;2.65;;;;;;;;;;5016661;28;20053;-79
2023/04/12 06:56:35;;;;;;;9.95;2.70;;;;;;;;;;5026152;28;20062;-80
2023/04/12 06:59:06;;;;;;;9.13;2.63;;;;;;;;;;5029726;28;20128;-78
2023/04/12 07:01:38;;;;;;;5.68;2.65;;;;;;;;;;5033271;28;20081;-79
2023/04/12 07:04:08;;;;;;;6.20;2.58;;;;;;;;;;5020281;28;20057;-78
2023/04/12 07:06:38;;;;;;;6.05;3.00;;;;;;;;;;5022939;28;20767;-79
2023/04/12 07:09:06;;;;;;;8.07;3.47;;;;;;;;;;5015770;28;21072;-80
2023/04/12 07:11:42;;;;;;;9.30;3.55;;;;;;;;;;5020903;28;20056;-80
2023/04/12 07:14:14;;;;;;;7.72;3.22;;;;;;;;;;5029098;28;20062;-79
2023/04/12 07:16:45;;;;;;;7.07;3.30;;;;;;;;;;5016937;28;20050;-79
2023/04/12 07:19:20;;;;;;;7.28;3.20;;;;;;;;;;5025458;28;20609;-80
2023/04/12 07:21:51;;;;;;;8.68;3.20;;;;;;;;;;5028571;28;20050;-78
2023/04/12 07:24:26;;;;;;;9.05;3.88;;;;;;;;;;5024860;28;20050;-78
2023/04/12 07:27:17;;;;;;;10.75;3.67;;;;;;;;;;5037069;28;20106;-79
2023/04/12 07:30:00;;;;;;;10.40;3.85;;;;;;;;;;5035055;28;20468;-80
2023/04/12 07:32:35;;;;;;;9.50;3.70;;;;;;;;;;5030797;28;20183;-80
2023/04/12 07:35:07;;;;;;;9.00;3.53;;;;;;;;;;5037502;28;21415;-79
2023/04/12 07:37:38;;;;;;;9.35;3.83;;;;;;;;;;5026995;28;20073;-79
2023/04/12 07:40:10;;;;;;;15.33;4.03;;;;;;;;;;5030653;28;20050;-78
2023/04/12 07:42:44;;;;;;;11.57;3.90;;;;;;;;;;5028888;28;20057;-77
2023/04/12 07:45:15;;;;;;;9.38;3.90;;;;;;;;;;5032371;28;20081;-78
2023/04/12 07:48:00;;;;;;;13.50;4.70;;;;;;;;;;5036731;28;20046;-78
2023/04/12 07:50:40;;;;;;;10.55;3.88;;;;;;;;;;5033407;28;20065;-78
2023/04/12 07:53:20;;;;;;;12.40;3.88;;;;;;;;;;5033616;28;20134;-80
2023/04/12 07:55:53;;;;;;;10.52;3.70;;;;;;;;;;5038353;28;20069;-79
2023/04/12 07:58:27;;;;;;;14.40;5.03;;;;;;;;;;5016818;28;20113;-79
2023/04/12 08:01:02;;;;;;;8.90;4.00;;;;;;;;;;5026901;28;20034;-79
2023/04/12 08:03:34;;;;;;;11.55;3.97;;;;;;;;;;5035261;28;20064;-78
2023/04/12 08:06:08;;;;;;;10.38;3.25;;;;;;;;;;5029770;28;20182;-77
2023/04/12 08:08:37;;;;;;;11.45;3.65;;;;;;;;;;5023076;28;20057;-78
2023/04/12 08:11:08;;;;;;;10.75;3.67;;;;;;;;;;5019887;28;20097;-79
2023/04/12 08:13:36;;;;;;;10.23;3.38;;;;;;;;;;5029557;28;20031;-78
2023/04/12 08:16:12;;;;;;;12.23;4.07;;;;;;;;;;5019120;28;20058;-77
2023/04/12 08:18:41;;;;;;;14.68;3.83;;;;;;;;;;5025511;28;20062;-77
2023/04/12 08:21:14;;;;;;;;;;;;;;;;;;5018862;28;20063;-79
2023/04/12 08:24:02;;;;;;;12.05;3.75;;;;;;;;;;5023947;28;19926;-78
2023/04/12 08:26:52;;;;;;;11.52;3.08;;;;;;;;;;5026914;28;20784;-80
2023/04/12 08:29:31;;;;;;;13.80;3.10;;;;;;;;;;5023869;28;20060;-79
2023/04/12 08:32:08;;;;;;;14.57;3.30;;;;;;;;;;5034994;28;20113;-78
2023/04/12 08:34:39;;;;;;;11.43;2.97;;;;;;;;;;5034798;28;20144;-78
2023/04/12 08:37:17;;;;;;;13.77;3.10;;;;;;;;;;5031670;28;20054;-79
2023/04/12 08:39:55;;;;;;;12.60;3.22;;;;;;;;;;5019663;28;20054;-79
2023/04/12 08:42:28;;;;;;;12.55;2.80;;;;;;;;;;5019086;28;20117;-78
2023/04/12 08:44:58;;;;;;;12.27;2.90;;;;;;;;;;5031089;28;20104;-77
2023/04/12 08:47:32;;;;;;;15.73;3.42;;;;;;;;;;5018631;28;20057;-80
2023/04/12 08:50:01;;;;;;;14.88;3.67;;;;;;;;;;5024075;28;20049;-78
2023/04/12 08:52:32;;;;;;;14.05;3.40;;;;;;;;;;5016969;28;20072;-79
2023/04/12 08:55:13;;;;;;;14.45;2.80;;;;;;;;;;5024407;28;20054;-79
2023/04/12 08:57:53;;;;;;;21.67;3.10;;;;;;;;;;5029950;28;20046;-77
2023/04/12 09:00:24;;;;;;;12.38;2.72;;;;;;;;;;5022320;28;20679;-79
2023/04/12 09:02:59;;;;;;;15.55;2.92;;;;;;;;;;5017778;28;20050;-78
2023/04/12 09:05:30;;;;;;;12.82;2.72;;;;;;;;;;5018954;28;20121;-79
2023/04/12 09:08:16;;;;;;;14.20;2.72;;;;;;;;;;5018180;28;20132;-78
2023/04/12 09:10:46;;;;;;;14.10;2.45;;;;;;;;;;5024709;28;20218;-77
2023/04/12 09:13:35;;;;;;;15.60;2.45;;;;;;;;;;5012164;28;20061;-78
2023/04/12 09:16:11;;;;;;;13.93;2.60;;;;;;;;;;5026618;28;20144;-78
2023/04/12 09:19:08;;;;;;;17.08;2.58;;;;;;;;;;5016487;28;20097;-79
2023/04/12 09:21:55;;;;;;;17.40;2.60;;;;;;;;;;5013566;28;20080;-77
2023/04/12 09:24:47;;;;;;;11.23;2.50;;;;;;;;;;4998307;28;20053;-78
2023/04/12 09:27:22;;;;;;;10.27;1.80;;;;;;;;;;5026793;28;20048;-80
2023/04/12 09:30:08;;;;;;;19.10;2.45;;;;;;;;;;5012686;28;20058;-77
2023/04/12 09:32:44;;;;;;;13.10;2.20;;;;;;;;;;5007686;28;20057;-76
2023/04/12 09:35:16;;;;;;;15.80;2.33;;;;;;;;;;5012786;28;20219;-79
2023/04/12 09:38:04;;;;;;;20.45;2.75;;;;;;;;;;5016673;28;20054;-76
2023/04/12 09:40:36;;;;;;;14.60;2.60;;;;;;;;;;5020676;28;20046;-80
2023/04/12 09:43:09;;;;;;;14.98;2.35;;;;;;;;;;5030391;28;20057;-78
2023/04/12 09:45:37;;;;;;;11.90;2.72;;;;;;;;;;5015972;28;20077;-78
2023/04/12 09:48:25;;;;;;;21.40;3.35;;;;;;;;;;5009677;28;20146;-78
2023/04/12 09:51:01;;;;;;;14.80;2.30;;;;;;;;;;5016099;28;20069;-78
2023/04/12 09:53:29;;;;;;;9.65;2.15;;;;;;;;;;5017329;28;20070;-81
2023/04/12 09:55:59;;;;;;;11.20;2.42;;;;;;;;;;5017051;28;20109;-77
2023/04/12 09:58:28;;;;;;;;;;;;;;;;;;5015091;28;20081;-79
2023/04/12 10:01:15;;;;;;;17.98;2.63;;;;;;;;;;5021899;28;46053;-83
2023/04/12 10:03:56;;;;;;;16.45;2.53;;;;;;;;;;5019809;28;20572;-84
2023/04/12 10:06:26;;;;;;;15.13;3.08;;;;;;;;;;5016131;28;20751;-75
2023/04/12 10:08:55;;;;;;;11.10;2.85;;;;;;;;;;5011966;28;20042;-79
2023/04/12 10:11:33;;;;;;;14.07;2.60;;;;;;;;;;5024127;28;20178;-76
2023/04/12 10:14:11;;;;;;;15.30;2.58;;;;;;;;;;5022699;28;20158;-75
2023/04/12 10:16:46;;;;;;;15.52;2.70;;;;;;;;;;5026180;28;20109;-78
2023/04/12 10:19:23;;;;;;;18.38;2.67;;;;;;;;;;5034735;28;20089;-78
2023/04/12 10:22:00;;;;;;;18.67;2.97;;;;;;;;;;5029096;28;20224;-78
2023/04/12 10:24:30;;;;;;;20.38;2.80;;;;;;;;;;5024599;28;20056;-79
2023/04/12 10:27:03;;;;;;;12.10;2.40;;;;;;;;;;5033653;28;20105;-77
2023/04/12 10:29:36;;;;;;;13.10;2.30;;;;;;;;;;5027067;28;20051;-78
2023/04/12 10:32:20;;;;;;;13.27;2.30;;;;;;;;;;5034256;28;21095;-79
2023/04/12 10:34:58;;;;;;;14.70;2.40;;;;;;;;;;5013993;28;20042;-78
2023/04/12 10:37:46;;;;;;;13.13;2.33;;;;;;;;;;5023538;28;20042;-80
2023/04/12 10:40:20;;;;;;;13.90;2.45;;;;;;;;;;5006018;28;20050;-80
2023/04/12 10:43:14;;;;;;;14.27;2.40;;;;;;;;;;5024967;28;20061;-78
2023/04/12 10:46:03;;;;;;;;;;;;;;;;;;;;;
2023/04/12 10:48:51;;;;;;;20.05;2.45;;;;;;;;;;5012962;28;20554;-78
2023/04/12 10:51:28;;;;;;;14.52;3.13;;;;;;;;;;5022599;28;20045;-78
2023/04/12 10:54:11;;;;;;;11.10;2.20;;;;;;;;;;5014780;28;20054;-81
2023/04/12 10:56:42;;;;;;;11.60;2.00;;;;;;;;;;5013639;28;20041;-80
2023/04/12 10:59:21;;;;;;;13.15;2.03;;;;;;;;;;5035645;28;20073;-80
2023/04/12 11:02:26;;;;;;;11.48;1.90;;;;;;;;;;5039810;28;20906;-78
2023/04/12 11:05:10;;;;;;;13.60;2.42;;;;;;;;;;5023381;28;20037;-79
2023/04/12 11:07:42;;;;;;;17.73;2.40;;;;;;;;;;5037821;28;20140;-78
2023/04/12 11:10:12;;;;;;;;;;;;;;;;;;5029135;28;20053;-79
2023/04/12 11:12:49;;;;;;;14.98;3.05;;;;;;;;;;5021588;28;44135;-78
2023/04/12 11:15:19;;;;;;;15.93;2.35;;;;;;;;;;5016231;28;21059;-80
2023/04/12 11:17:55;;;;;;;11.90;2.25;;;;;;;;;;5023385;28;20957;-81
2023/04/12 11:20:32;;;;;;;18.88;3.03;;;;;;;;;;5019194;28;20038;-78
2023/04/12 11:23:09;;;;;;;9.25;2.20;;;;;;;;;;5017500;28;20062;-80
2023/04/12 11:25:42;;;;;;;11.40;2.47;;;;;;;;;;5019242;28;20061;-80
2023/04/12 11:28:17;;;;;;;15.65;2.90;;;;;;;;;;5020054;28;20583;-81
2023/04/12 11:31:07;;;;;;;20.80;2.78;;;;;;;;;;5016417;28;20054;-79
2023/04/12 11:33:39;;;;;;;19.58;2.65;;;;;;;;;;5033455;28;20129;-79
2023/04/12 11:36:14;;;;;;;12.60;2.55;;;;;;;;;;5023441;28;21042;-79
2023/04/12 11:38:44;;;;;;;10.80;2.33;;;;;;;;;;5023832;28;20148;-81
2023/04/12 11:41:27;;;;;;;15.73;2.67;;;;;;;;;;5029736;28;20517;-81
2023/04/12 11:44:00;;;;;;;13.27;2.17;;;;;;;;;;5013915;28;20101;-77
2023/04/12 11:46:37;;;;;;;13.43;1.95;;;;;;;;;;5020523;28;20735;-78
2023/04/12 11:49:09;;;;;;;11.70;2.13;;;;;;;;;;5030453;28;20053;-79
2023/04/12 11:51:59;;;;;;;9.30;1.40;;;;;;;;;;5021437;28;20046;-79
2023/04/12 11:54:34;;;;;;;12.77;1.40;;;;;;;;;;5034091;28;20086;-78
2023/04/12 11:57:05;;;;;;;11.10;2.00;;;;;;;;;;5027732;28;20248;-81
2023/04/12 11:59:56;;;;;;;12.05;1.48;;;;;;;;;;5016181;28;20060;-79
2023/04/12 12:02:27;;;;;;;9.52;1.95;;;;;;;;;;5006468;28;21144;-80
2023/04/12 12:05:17;;;;;;;7.78;1.50;;;;;;;;;;5030525;28;20911;-79
2023/04/12 12:07:48;;;;;;;11.55;1.58;;;;;;;;;;5016078;28;20983;-79
2023/04/12 12:10:17;;;;;;;5.28;1.23;;;;;;;;;;5016014;28;20748;-80
2023/04/12 12:13:11;;;;;;;6.40;1.33;;;;;;;;;;5025389;28;20050;-80
2023/04/12 12:15:46;;;;;;;6.20;1.20;;;;;;;;;;5018575;28;20058;-78
2023/04/12 12:18:28;;;;;;;5.10;1.50;;;;;;;;;;5037625;28;20058;-80
2023/04/12 12:21:00;;;;;;;7.30;1.30;;;;;;;;;;5036501;28;21120;-79
2023/04/12 12:23:32;;;;;;;7.65;1.48;;;;;;;;;;5034775;28;20524;-80
2023/04/12 12:26:06;;;;;;;9.73;1.63;;;;;;;;;;5029272;28;20904;-81
2023/04/12 12:28:48;;;;;;;8.35;1.58;;;;;;;;;;5034536;28;20683;-80
2023/04/12 12:31:35;;;;;;;;;;;;;;;;;;;;;
2023/04/12 12:34:11;;;;;;;8.80;1.35;;;;;;;;;;5014247;28;20077;-77
2023/04/12 12:36:54;;;;;;;9.43;1.55;;;;;;;;;;5021665;28;20053;-81
2023/04/12 12:39:24;;;;;;;8.65;1.20;;;;;;;;;;5015470;28;20919;-78
2023/04/12 12:42:10;;;;;;;4.80;0.90;;;;;;;;;;5018300;28;20058;-78
2023/04/12 12:44:46;;;;;;;7.38;1.20;;;;;;;;;;5031278;28;20043;-80
2023/04/12 12:47:17;;;;;;;4.60;1.02;;;;;;;;;;5019656;28;20054;-80
2023/04/12 12:49:48;;;;;;;10.30;1.52;;;;;;;;;;5015769;28;20394;-78
2023/04/12 12:52:19;;;;;;;8.93;1.58;;;;;;;;;;5032296;28;20061;-80
2023/04/12 12:54:50;;;;;;;8.80;1.35;;;;;;;;;;5024734;28;20110;-81
2023/04/12 12:57:28;;;;;;;11.85;1.40;;;;;;;;;;5022819;28;20065;-80
2023/04/12 13:00:00;;;;;;;5.68;0.95;;;;;;;;;;5025479;28;20433;-79
2023/04/12 13:02:33;;;;;;;8.10;1.65;;;;;;;;;;5019103;28;20826;-78
2023/04/12 13:05:01;;;;;;;;;;;;;;;;;;5031704;28;20074;-77
2023/04/12 13:07:37;;;;;;;10.75;1.50;;;;;;;;;;5015366;28;43058;-79
2023/04/12 13:10:04;;;;;;;9.63;1.55;;;;;;;;;;5019321;28;20057;-81
2023/04/12 13:12:36;;;;;;;9.20;1.02;;;;;;;;;;5015342;28;20173;-76
2023/04/12 13:15:06;;;;;;;7.85;1.20;;;;;;;;;;5012276;28;20160;-75
2023/04/12 13:17:57;;;;;;;9.75;1.38;;;;;;;;;;5023207;28;20045;-76
2023/04/12 13:20:35;;;;;;;7.28;1.15;;;;;;;;;;5011416;28;20093;-76
2023/04/12 13:23:14;;;;;;;8.77;1.23;;;;;;;;;;5012488;28;20057;-82
2023/04/12 13:25:53;;;;;;;7.70;0.95;;;;;;;;;;5010402;28;20057;-76
2023/04/12 13:28:23;;;;;;;4.10;1.00;;;;;;;;;;5013162;28;20517;-84
2023/04/12 13:30:55;;;;;;;5.95;1.00;;;;;;;;;;5022002;28;20053;-81
2023/04/12 13:33:23;;;;;;;8.55;1.13;;;;;;;;;;5011855;28;20046;-83
2023/04/12 13:35:56;;;;;;;6.15;0.90;;;;;;;;;;5022367;28;20153;-80
2023/04/12 13:38:49;;;;;;;;;;;;;;;;;;;;;
2023/04/12 13:41:27;;;;;;;4.28;0.75;;;;;;;;;;5020636;28;20042;-79
2023/04/12 13:44:03;;;;;;;4.60;0.90;;;;;;;;;;5047361;28;20139;-79
2023/04/12 13:46:31;;;;;;;5.22;0.80;;;;;;;;;;5035998;28;20059;-78
2023/04/12 13:49:10;;;;;;;5.70;0.90;;;;;;;;;;5026839;28;20056;-79
2023/04/12 13:51:45;;;;;;;4.22;0.70;;;;;;;;;;5022005;28;20054;-78
2023/04/12 13:54:16;;;;;;;3.58;0.65;;;;;;;;;;5033755;28;20085;-80
2023/04/12 13:57:06;;;;;;;;;;;;;;;;;;;;;
2023/04/12 13:59:37;;;;;;;6.80;1.10;;;;;;;;;;5021750;28;20058;-79
2023/04/12 14:02:06;;;;;;;3.88;0.90;;;;;;;;;;5027999;28;20046;-79
2023/04/12 14:04:51;;;;;;;3.88;0.70;;;;;;;;;;5027865;28;20057;-78
2023/04/12 14:07:32;;;;;;;4.45;0.80;;;;;;;;;;5031307;28;20094;-79
2023/04/12 14:10:00;;;;;;;4.55;0.80;;;;;;;;;;5031334;28;20085;-78
2023/04/12 14:12:35;;;;;;;4.50;0.70;;;;;;;;;;5021074;28;20065;-78
2023/04/12 14:15:09;;;;;;;5.72;1.00;;;;;;;;;;5027349;28;20061;-75
2023/04/12 14:17:43;;;;;;;3.67;0.85;;;;;;;;;;5016742;28;20061;-82
2023/04/12 14:20:14;;;;;;;4.00;0.70;;;;;;;;;;5026740;28;20061;-82
2023/04/12 14:22:48;;;;;;;3.55;0.75;;;;;;;;;;5024966;28;20060;-78
2023/04/12 14:25:17;;;;;;;6.28;1.00;;;;;;;;;;5005091;28;20061;-77
2023/04/12 14:27:50;;;;;;;4.47;0.90;;;;;;;;;;5020692;28;20053;-77
2023/04/12 14:30:25;;;;;;;6.63;1.30;;;;;;;;;;5019802;28;20112;-76
2023/04/12 14:33:02;;;;;;;6.82;1.45;;;;;;;;;;5022900;28;20173;-77
2023/04/12 14:35:43;;;;;;;9.10;2.45;;;;;;;;;;5012349;28;20056;-77
2023/04/12 14:38:13;;;;;;;6.25;2.33;;;;;;;;;;5005392;28;20121;-77
2023/04/12 14:40:46;;;;;;;7.00;1.60;;;;;;;;;;5010117;28;20050;-78
2023/04/12 14:43:17;;;;;;;5.72;1.33;;;;;;;;;;5010249;28;20062;-77
2023/04/12 14:45:49;;;;;;;4.53;1.00;;;;;;;;;;5012554;28;20098;-78
2023/04/12 14:48:28;;;;;;;5.93;0.95;;;;;;;;;;5027796;28;20054;-78
2023/04/12 14:51:04;;;;;;;5.47;1.00;;;;;;;;;;5026105;28;20071;-77
2023/04/12 14:53:39;;;;;;;3.53;1.00;;;;;;;;;;5014256;28;20124;-78
2023/04/12 14:56:26;;;;;;;5.50;0.82;;;;;;;;;;5025835;28;20060;-78
2023/04/12 14:59:13;;;;;;;3.55;0.80;;;;;;;;;;5026139;28;20054;-78
2023/04/12 15:01:47;;;;;;;4.32;0.77;;;;;;;;;;5019605;28;20049;-78
2023/04/12 15:04:18;;;;;;;3.42;0.68;;;;;;;;;;5011887;28;20061;-78
2023/04/12 15:06:49;;;;;;;5.72;1.02;;;;;;;;;;5010130;28;20054;-78
2023/04/12 15:09:20;;;;;;;4.50;1.10;;;;;;;;;;5015394;28;20055;-78
2023/04/12 15:11:59;;;;;;;3.60;0.88;;;;;;;;;;5014683;28;20060;-78
2023/04/12 15:14:27;;;;;;;4.38;1.00;;;;;;;;;;5010880;28;20152;-78
2023/04/12 15:17:02;;;;;;;3.45;0.93;;;;;;;;;;5009494;28;20061;-78
2023/04/12 15:19:30;;;;;;;2.83;0.70;;;;;;;;;;5007670;28;20065;-78
2023/04/12 15:22:04;;;;;;;5.00;0.70;;;;;;;;;;5010139;28;20277;-78
2023/04/12 15:24:50;;;;;;;3.83;0.80;;;;;;;;;;5024536;28;20082;-77
2023/04/12 15:27:30;;;;;;;4.32;1.02;;;;;;;;;;5027134;28;20065;-78
2023/04/12 15:30:08;;;;;;;4.63;0.95;;;;;;;;;;5019373;28;20050;-78
2023/04/12 15:32:43;;;;;;;4.78;1.63;;;;;;;;;;5008394;28;20061;-78
2023/04/12 15:35:16;;;;;;;4.47;1.10;;;;;;;;;;5008642;28;20238;-78
2023/04/12 15:37:55;;;;;;;;;;;;;;;;;;5017238;28;20141;-78
2023/04/12 15:40:25;;;;;;;4.88;1.10;;;;;;;;;;5020097;28;43674;-78
2023/04/12 15:43:00;;;;;;;4.18;1.10;;;;;;;;;;5006800;28;20054;-79
2023/04/12 15:45:56;;;;;;;3.92;1.20;;;;;;;;;;5008632;28;20203;-79
2023/04/12 15:48:31;;;;;;;3.92;0.90;;;;;;;;;;5028435;28;20054;-78